Time,TemperatureF,DewpointF,PressureIn,WindDirection,WindDirectionDegrees,WindSpeedMPH,WindSpeedGustMPH,Humidity,HourlyPrecipIn,Conditions,Clouds,dailyrainin,SolarRadiationWatts/m^2,SoftwareType,DateUTC
2013-05-05 00:01:00,57.0,32.0,-100.00,NE,44,8.0,21.0,38,0.00,,,0.00,0.000000,,2013-05-05 07:01:00,
2013-05-05 00:22:00,57.0,32.0,-100.00,NE,44,8.0,21.0,38,0.00,,,0.00,0.000000,,2013-05-05 07:22:00,
2013-05-05 00:32:00,57.0,32.0,-100.00,NE,44,8.0,21.0,38,0.00,,,0.00,0.000000,,2013-05-05 07:32:00,
2013-05-05 00:42:00,57.0,32.0,-100.00,NE,44,8.0,21.0,38,0.00,,,0.00,0.000000,,2013-05-05 07:42:00,
2013-05-05 00:52:00,57.0,32.0,-100.00,NE,44,8.0,21.0,38,0.00,,,0.00,0.000000,,2013-05-05 07:52:00,
2013-05-05 01:01:00,55.0,33.0,-100.00,SSW,210,7.0,19.0,43,0.00,,,0.00,0.000000,,2013-05-05 08:01:00,
2013-05-05 01:22:00,55.0,33.0,-100.00,SSW,210,7.0,19.0,43,0.00,,,0.00,0.000000,,2013-05-05 08:22:00,
2013-05-05 01:32:00,55.0,33.0,-100.00,SSW,210,7.0,19.0,43,0.00,,,0.00,0.000000,,2013-05-05 08:32:00,
2013-05-05 01:42:00,55.0,33.0,-100.00,SSW,210,7.0,19.0,43,0.00,,,0.00,0.000000,,2013-05-05 08:42:00,
2013-05-05 01:53:00,55.0,33.0,-100.00,SSW,210,7.0,19.0,43,0.00,,,0.00,0.000000,,2013-05-05 08:53:00,
2013-05-05 02:01:00,55.0,35.0,-100.00,North,7,5.0,15.0,46,0.00,,,0.00,0.000000,,2013-05-05 09:01:00,
2013-05-05 02:22:00,55.0,35.0,-100.00,North,7,5.0,15.0,46,0.00,,,0.00,0.000000,,2013-05-05 09:22:00,
2013-05-05 02:33:00,55.0,35.0,-100.00,North,7,5.0,15.0,46,0.00,,,0.00,0.000000,,2013-05-05 09:33:00,
2013-05-05 02:42:00,55.0,35.0,-100.00,North,7,5.0,15.0,46,0.00,,,0.00,0.000000,,2013-05-05 09:42:00,
2013-05-05 02:52:00,55.0,35.0,-100.00,North,7,5.0,15.0,46,0.00,,,0.00,0.000000,,2013-05-05 09:52:00,
2013-05-05 03:01:00,55.0,35.0,-100.00,NE,42,6.0,14.0,46,0.00,,,0.00,0.000000,,2013-05-05 10:01:00,
2013-05-05 03:32:00,55.0,35.0,-100.00,NE,42,6.0,14.0,46,0.00,,,0.00,0.000000,,2013-05-05 10:32:00,
2013-05-05 03:42:00,55.0,35.0,-100.00,NE,42,6.0,14.0,46,0.00,,,0.00,0.000000,,2013-05-05 10:42:00,
2013-05-05 03:52:00,55.0,35.0,-100.00,NE,42,6.0,14.0,46,0.00,,,0.00,0.000000,,2013-05-05 10:52:00,
2013-05-05 04:01:00,52.0,34.0,-100.00,West,271,6.0,14.0,50,0.00,,,0.00,0.000000,,2013-05-05 11:01:00,
2013-05-05 04:32:00,52.0,34.0,-100.00,West,271,6.0,14.0,50,0.00,,,0.00,0.000000,,2013-05-05 11:32:00,
2013-05-05 04:42:00,52.0,34.0,-100.00,West,271,6.0,14.0,50,0.00,,,0.00,0.000000,,2013-05-05 11:42:00,
2013-05-05 04:52:00,52.0,34.0,-100.00,West,271,6.0,14.0,50,0.00,,,0.00,0.000000,,2013-05-05 11:52:00,
2013-05-05 05:01:00,52.0,35.0,-100.00,NE,48,6.0,15.0,52,0.00,,,0.00,0.000000,,2013-05-05 12:01:00,
2013-05-05 05:32:00,52.0,35.0,-100.00,NE,48,6.0,15.0,52,0.00,,,0.00,0.000000,,2013-05-05 12:32:00,
2013-05-05 05:42:00,52.0,35.0,-100.00,NE,48,6.0,15.0,52,0.00,,,0.00,0.000000,,2013-05-05 12:42:00,
2013-05-05 05:52:00,52.0,35.0,-100.00,NE,48,6.0,15.0,52,0.00,,,0.00,0.000000,,2013-05-05 12:52:00,
2013-05-05 06:01:00,52.0,35.0,-100.00,NE,44,7.0,18.0,53,0.00,,,0.00,0.000000,,2013-05-05 13:01:00,
2013-05-05 06:32:00,52.0,35.0,-100.00,NE,44,7.0,18.0,53,0.00,,,0.00,0.000000,,2013-05-05 13:32:00,
2013-05-05 07:01:00,54.0,34.0,-100.00,NE,47,15.0,22.0,47,0.00,,,0.00,1.000000,,2013-05-05 14:01:00,
2013-05-05 07:32:00,54.0,34.0,-100.00,NE,47,15.0,22.0,47,0.00,,,0.00,1.000000,,2013-05-05 14:32:00,
2013-05-05 07:42:00,54.0,34.0,-100.00,NE,47,15.0,22.0,47,0.00,,,0.00,1.000000,,2013-05-05 14:42:00,
2013-05-05 07:52:00,54.0,34.0,-100.00,NE,47,15.0,22.0,47,0.00,,,0.00,1.000000,,2013-05-05 14:52:00,
2013-05-05 08:01:00,55.0,38.0,-100.00,NE,43,11.0,22.0,52,0.00,,,0.00,74.000000,,2013-05-05 15:01:00,
2013-05-05 08:21:00,55.0,38.0,-100.00,NE,43,11.0,22.0,52,0.00,,,0.00,74.000000,,2013-05-05 15:21:00,
2013-05-05 08:33:00,55.0,38.0,-100.00,NE,43,11.0,22.0,52,0.00,,,0.00,74.000000,,2013-05-05 15:33:00,
2013-05-05 08:43:00,55.0,38.0,-100.00,NE,43,11.0,22.0,52,0.00,,,0.00,74.000000,,2013-05-05 15:43:00,
2013-05-05 08:53:00,55.0,38.0,-100.00,NE,43,11.0,22.0,52,0.00,,,0.00,74.000000,,2013-05-05 15:53:00,
2013-05-05 09:01:00,59.0,32.0,-100.00,NE,47,16.0,23.0,36,0.00,,,0.00,269.000000,,2013-05-05 16:01:00,
2013-05-05 09:23:00,59.0,32.0,-100.00,NE,47,16.0,23.0,36,0.00,,,0.00,269.000000,,2013-05-05 16:23:00,
2013-05-05 09:32:00,59.0,32.0,-100.00,NE,47,16.0,23.0,36,0.00,,,0.00,269.000000,,2013-05-05 16:32:00,
2013-05-05 09:42:00,59.0,32.0,-100.00,NE,47,16.0,23.0,36,0.00,,,0.00,269.000000,,2013-05-05 16:42:00,
2013-05-05 09:52:00,59.0,32.0,-100.00,NE,47,16.0,23.0,36,0.00,,,0.00,269.000000,,2013-05-05 16:52:00,
2013-05-05 10:01:00,61.0,35.0,-100.00,NE,49,15.0,23.0,37,0.00,,,0.00,478.000000,,2013-05-05 17:01:00,
2013-05-05 10:32:00,61.0,35.0,-100.00,NE,49,15.0,23.0,37,0.00,,,0.00,478.000000,,2013-05-05 17:32:00,
2013-05-05 10:42:00,61.0,35.0,-100.00,NE,49,15.0,23.0,37,0.00,,,0.00,478.000000,,2013-05-05 17:42:00,
2013-05-05 10:52:00,61.0,35.0,-100.00,NE,49,15.0,23.0,37,0.00,,,0.00,478.000000,,2013-05-05 17:52:00,
2013-05-05 11:01:00,64.0,36.0,-100.00,NE,55,10.0,23.0,35,0.00,,,0.00,676.000000,,2013-05-05 18:01:00,
2013-05-05 11:32:00,64.0,36.0,-100.00,NE,55,10.0,23.0,35,0.00,,,0.00,676.000000,,2013-05-05 18:32:00,
2013-05-05 11:42:00,64.0,36.0,-100.00,NE,55,10.0,23.0,35,0.00,,,0.00,676.000000,,2013-05-05 18:42:00,
2013-05-05 11:52:00,64.0,36.0,-100.00,NE,55,10.0,23.0,35,0.00,,,0.00,676.000000,,2013-05-05 18:52:00,
2013-05-05 12:01:00,68.0,35.0,-100.00,NE,50,15.0,22.0,29,0.00,,,0.00,844.000000,,2013-05-05 19:01:00,
2013-05-05 12:32:00,68.0,35.0,-100.00,NE,50,15.0,22.0,29,0.00,,,0.00,844.000000,,2013-05-05 19:32:00,
2013-05-05 12:42:00,68.0,35.0,-100.00,NE,50,15.0,22.0,29,0.00,,,0.00,844.000000,,2013-05-05 19:42:00,
2013-05-05 12:52:00,68.0,35.0,-100.00,NE,50,15.0,22.0,29,0.00,,,0.00,844.000000,,2013-05-05 19:52:00,
2013-05-05 13:01:00,73.0,33.0,-100.00,SW,220,9.0,23.0,23,0.00,,,0.00,964.000000,,2013-05-05 20:01:00,
2013-05-05 13:32:00,73.0,33.0,-100.00,SW,220,9.0,23.0,23,0.00,,,0.00,964.000000,,2013-05-05 20:32:00,
2013-05-05 13:42:00,73.0,33.0,-100.00,SW,220,9.0,23.0,23,0.00,,,0.00,964.000000,,2013-05-05 20:42:00,
2013-05-05 13:52:00,73.0,33.0,-100.00,SW,220,9.0,23.0,23,0.00,,,0.00,964.000000,,2013-05-05 20:52:00,
2013-05-05 15:01:00,77.0,34.0,-100.00,NNE,27,7.0,21.0,21,-99.99,,,0.00,1046.000000,,2013-05-05 22:01:00,
2013-05-05 15:33:00,77.0,34.0,-100.00,NNE,27,7.0,21.0,21,-99.99,,,0.00,1046.000000,,2013-05-05 22:33:00,
2013-05-05 15:42:00,77.0,34.0,-100.00,NNE,27,7.0,21.0,21,-99.99,,,0.00,1046.000000,,2013-05-05 22:42:00,
2013-05-05 15:52:00,77.0,34.0,-100.00,NNE,27,7.0,21.0,21,-99.99,,,0.00,1046.000000,,2013-05-05 22:52:00,
2013-05-05 16:01:00,77.0,36.0,-100.00,NE,35,8.0,22.0,23,0.00,,,0.00,993.000000,,2013-05-05 23:01:00,
2013-05-05 16:32:00,77.0,36.0,-100.00,NE,35,8.0,22.0,23,0.00,,,0.00,993.000000,,2013-05-05 23:32:00,
2013-05-05 16:42:00,77.0,36.0,-100.00,NE,35,8.0,22.0,23,0.00,,,0.00,993.000000,,2013-05-05 23:42:00,
2013-05-05 16:52:00,77.0,36.0,-100.00,NE,35,8.0,22.0,23,0.00,,,0.00,993.000000,,2013-05-05 23:52:00,
2013-05-05 17:01:00,76.0,34.0,-100.00,South,181,6.0,22.0,22,0.00,,,0.00,890.000000,,2013-05-06 00:01:00,
2013-05-05 17:22:00,76.0,34.0,-100.00,South,181,6.0,22.0,22,0.00,,,0.00,890.000000,,2013-05-06 00:22:00,
2013-05-05 17:32:00,76.0,34.0,-100.00,South,181,6.0,22.0,22,0.00,,,0.00,890.000000,,2013-05-06 00:32:00,
2013-05-05 17:42:00,76.0,34.0,-100.00,South,181,6.0,22.0,22,0.00,,,0.00,890.000000,,2013-05-06 00:42:00,
2013-05-05 17:51:00,76.0,34.0,-100.00,South,181,6.0,22.0,22,0.00,,,0.00,890.000000,,2013-05-06 00:51:00,
2013-05-05 18:01:00,75.0,35.0,-100.00,NE,51,7.0,23.0,23,0.00,,,-99.99,738.000000,,2013-05-06 01:01:00,
2013-05-05 18:21:00,75.0,35.0,-100.00,NE,51,7.0,23.0,23,0.00,,,-99.99,738.000000,,2013-05-06 01:21:00,
2013-05-05 18:32:00,75.0,35.0,-100.00,NE,51,7.0,23.0,23,0.00,,,-99.99,738.000000,,2013-05-06 01:32:00,
2013-05-05 18:42:00,75.0,35.0,-100.00,NE,51,7.0,23.0,23,0.00,,,-99.99,738.000000,,2013-05-06 01:42:00,
2013-05-05 18:52:00,75.0,35.0,-100.00,NE,51,7.0,23.0,23,0.00,,,-99.99,738.000000,,2013-05-06 01:52:00,
2013-05-05 19:01:00,73.0,34.0,-100.00,SE,127,8.0,21.0,24,0.00,,,0.00,548.000000,,2013-05-06 02:01:00,
2013-05-05 19:32:00,73.0,34.0,-100.00,SE,127,8.0,21.0,24,0.00,,,0.00,548.000000,,2013-05-06 02:32:00,
2013-05-05 19:42:00,73.0,34.0,-100.00,SE,127,8.0,21.0,24,0.00,,,0.00,548.000000,,2013-05-06 02:42:00,
2013-05-05 19:52:00,73.0,34.0,-100.00,SE,127,8.0,21.0,24,0.00,,,0.00,548.000000,,2013-05-06 02:52:00,
2013-05-05 20:01:00,71.0,34.0,-100.00,NW,313,9.0,23.0,26,0.00,,,0.00,335.000000,,2013-05-06 03:01:00,
2013-05-05 20:33:00,71.0,34.0,-100.00,NW,313,9.0,23.0,26,0.00,,,0.00,335.000000,,2013-05-06 03:33:00,
2013-05-05 20:42:00,71.0,34.0,-100.00,NW,313,9.0,23.0,26,0.00,,,0.00,335.000000,,2013-05-06 03:42:00,
2013-05-05 20:52:00,71.0,34.0,-100.00,NW,313,9.0,23.0,26,0.00,,,0.00,335.000000,,2013-05-06 03:52:00,
2013-05-05 21:01:00,68.0,34.0,-100.00,SSE,147,5.0,21.0,28,0.00,,,0.00,136.000000,,2013-05-06 04:01:00,
2013-05-05 21:23:00,68.0,34.0,-100.00,SSE,147,5.0,21.0,28,0.00,,,0.00,136.000000,,2013-05-06 04:23:00,
2013-05-05 21:32:00,68.0,34.0,-100.00,SSE,147,5.0,21.0,28,0.00,,,0.00,136.000000,,2013-05-06 04:32:00,
2013-05-05 21:43:00,68.0,34.0,-100.00,SSE,147,5.0,21.0,28,0.00,,,0.00,136.000000,,2013-05-06 04:43:00,
2013-05-05 21:53:00,68.0,34.0,-100.00,SSE,147,5.0,21.0,28,0.00,,,0.00,136.000000,,2013-05-06 04:53:00,
2013-05-05 22:01:00,65.0,34.0,-100.00,SW,218,7.0,16.0,31,0.00,,,-99.99,9.000000,,2013-05-06 05:01:00,
2013-05-05 22:32:00,65.0,34.0,-100.00,SW,218,7.0,16.0,31,0.00,,,-99.99,9.000000,,2013-05-06 05:32:00,
2013-05-05 22:42:00,65.0,34.0,-100.00,SW,218,7.0,16.0,31,0.00,,,-99.99,9.000000,,2013-05-06 05:42:00,
2013-05-05 22:52:00,65.0,34.0,-100.00,SW,218,7.0,16.0,31,0.00,,,-99.99,9.000000,,2013-05-06 05:52:00,
2013-05-05 23:01:00,63.0,32.0,-100.00,WNW,287,5.0,19.0,31,0.00,,,0.00,0.000000,,2013-05-06 06:01:00,
2013-05-05 23:22:00,63.0,32.0,-100.00,WNW,287,5.0,19.0,31,0.00,,,0.00,0.000000,,2013-05-06 06:22:00,
2013-05-05 23:32:00,63.0,32.0,-100.00,WNW,287,5.0,19.0,31,0.00,,,0.00,0.000000,,2013-05-06 06:32:00,
2013-05-05 23:42:00,63.0,32.0,-100.00,WNW,287,5.0,19.0,31,0.00,,,0.00,0.000000,,2013-05-06 06:42:00,
2013-05-05 23:52:00,63.0,32.0,-100.00,WNW,287,5.0,19.0,31,0.00,,,0.00,0.000000,,2013-05-06 06:52:00,